Time;durP1;ratioP1;P1;durP2;ratioP2;P2;SDS_P1;SDS_P2;PMS_P1;PMS_P2;Temp;Humidity;BMP_temperature;BMP_pressure;BME280_temperature;BME280_humidity;BME280_pressure;Samples;Min_cycle;Max_cycle;Signal;HPM_P1;HPM_P2
2023/01/29 00:00:08;;;;;;;;;;;;;;;4.67;63.61;100630.81;4261161;33;32955;-76
2023/01/29 00:02:38;;;;;;;36.85;16.23;;;;;;;6.37;57.22;100620.09;4261202;33;35201;-76
2023/01/29 00:05:06;;;;;;;41.08;21.02;;;;;;;6.07;55.83;100616.13;4246804;33;32566;-76
2023/01/29 00:07:53;;;;;;;39.70;20.12;;;;;;;5.53;59.13;100617.13;4248647;33;33666;-76
2023/01/29 00:10:22;;;;;;;;;;;;;;;6.12;56.83;100624.19;4247072;33;34702;-76
2023/01/29 00:12:50;;;;;;;;;;;;;;;5.57;58.75;100619.16;4247032;33;33822;-77
2023/01/29 00:15:17;;;;;;;;;;;;;;;6.02;57.96;100618.34;4260085;33;33765;-77
2023/01/29 00:17:45;;;;;;;36.25;17.52;;;;;;;6.75;55.01;100632.31;4260803;33;33982;-76
2023/01/29 00:20:12;;;;;;;38.80;17.95;;;;;;;6.73;54.70;100633.91;4260267;33;33949;-76
2023/01/29 00:22:41;;;;;;;36.20;17.55;;;;;;;6.76;54.98;100641.88;4259061;33;34680;-77
2023/01/29 00:25:10;;;;;;;39.20;18.00;;;;;;;6.06;56.70;100635.78;4260268;33;33725;-76
2023/01/29 00:27:37;;;;;;;;;;;;;;;5.47;58.15;100637.22;4260827;33;34011;-77
2023/01/29 00:30:10;;;;;;;;;;;;;;;5.49;58.96;100640.78;4261052;33;33873;-76
2023/01/29 00:32:38;;;;;;;;;;;;;;;5.81;58.17;100637.25;4261229;33;35226;-76
2023/01/29 00:35:07;;;;;;;36.85;18.10;;;;;;;5.82;57.90;100646.75;4245600;33;33556;-76
2023/01/29 00:37:35;;;;;;;42.62;20.50;;;;;;;6.07;57.13;100650.47;4259464;33;33653;-76
2023/01/29 00:40:03;;;;;;;;;;;;;;;5.22;59.11;100654.94;4247446;33;34043;-76
2023/01/29 00:45:17;;;;;;;38.28;17.30;;;;;;;5.23;59.36;100657.59;4260343;33;33701;-76
2023/01/29 00:47:44;;;;;;;;;;;;;;;4.82;60.79;100657.75;4248241;33;33516;-76
2023/01/29 00:50:12;;;;;;;;;;;;;;;4.78;60.80;100658.25;4257434;33;34013;-76
2023/01/29 00:52:40;;;;;;;;;;;;;;;5.15;59.65;100658.66;4258744;33;34318;-77
2023/01/29 00:55:09;;;;;;;;;;;;;;;5.40;58.93;100655.47;4247446;33;32935;-76
2023/01/29 00:57:36;;;;;;;;;;;;;;;5.44;58.40;100657.50;4248020;33;34021;-76
2023/01/29 01:00:05;;;;;;;;;;;;;;;6.18;56.36;100658.09;4261198;33;34815;-76
2023/01/29 01:03:16;;;;;;;;;;;;;;;6.65;54.93;100653.03;4247803;33;34241;-76
2023/01/29 01:05:25;;;;;;;;;;;;;;;7.08;53.34;100651.00;4258834;33;33717;-76
2023/01/29 01:07:53;;;;;;;;;;;;;;;6.75;53.78;100658.06;4260516;33;34769;-76
2023/01/29 01:10:25;;;;;;;36.28;17.27;;;;;;;6.28;54.97;100655.44;4260920;33;33557;-76
2023/01/29 01:12:59;;;;;;;33.55;14.98;;;;;;;5.90;56.92;100654.25;4248006;33;33840;-76
2023/01/29 01:15:29;;;;;;;36.72;16.42;;;;;;;6.29;56.03;100652.06;4247102;33;34483;-76
2023/01/29 01:17:59;;;;;;;36.55;19.42;;;;;;;6.99;53.77;100655.50;4259202;33;33238;-76
2023/01/29 01:20:28;;;;;;;40.95;21.00;;;;;;;6.06;55.91;100648.66;4245890;33;33568;-76
2023/01/29 01:22:56;;;;;;;35.60;18.65;;;;;;;7.46;51.70;100645.12;4246528;33;33658;-76
2023/01/29 01:25:24;;;;;;;;;;;;;;;7.38;51.42;100646.25;4260259;33;33212;-76
2023/01/29 01:27:52;;;;;;;;;;;;;;;6.73;52.96;100661.34;4236487;33;32334;-76
2023/01/29 01:30:19;;;;;;;33.42;16.08;;;;;;;6.55;53.58;100654.03;4249484;33;34269;-76
2023/01/29 01:32:47;;;;;;;27.50;13.55;;;;;;;6.18;54.46;100652.94;4260487;33;34812;-76
2023/01/29 01:35:15;;;;;;;34.22;15.63;;;;;;;5.68;55.62;100659.44;4259796;33;33547;-76
2023/01/29 01:37:43;;;;;;;34.83;15.60;;;;;;;5.16;57.24;100665.59;4247390;33;33653;-76
2023/01/29 01:40:37;;;;;;;33.97;15.00;;;;;;;4.87;58.00;100666.72;4260010;33;33667;-76
2023/01/29 01:43:24;;;;;;;33.85;15.60;;;;;;;4.93;58.06;100667.22;4259286;33;34999;-76
2023/01/29 01:45:52;;;;;;;35.47;15.18;;;;;;;4.56;59.51;100672.66;4260280;33;34275;-76
2023/01/29 01:48:23;;;;;;;;;;;;;;;4.12;60.78;100671.66;4260388;33;33343;-76
2023/01/29 01:51:02;;;;;;;36.03;16.05;;;;;;;4.09;61.42;100679.09;4260560;33;33889;-76
2023/01/29 01:53:37;;;;;;;37.67;15.80;;;;;;;4.56;60.16;100671.03;4259415;33;34883;-76
2023/01/29 01:56:06;;;;;;;;;;;;;;;4.80;59.12;100676.38;4253161;33;33390;-76
2023/01/29 01:58:39;;;;;;;;;;;;;;;3.60;63.97;100680.03;4259574;33;34219;-76
2023/01/29 02:01:06;;;;;;;;;;;;;;;5.60;57.57;100669.88;4260935;33;34229;-76
2023/01/29 02:09:34;;;;;;;34.03;16.30;;;;;;;3.72;63.20;100686.22;4246888;33;32470;-76
2023/01/29 02:12:04;;;;;;;;;;;;;;;3.83;63.24;100688.81;4260824;33;33714;-76
2023/01/29 02:14:32;;;;;;;;;;;;;;;5.19;58.79;100694.09;4260814;33;34208;-76
2023/01/29 02:17:00;;;;;;;;;;;;;;;6.03;55.45;100683.56;4260077;33;34194;-76
2023/01/29 02:19:30;;;;;;;;;;;;;;;4.29;61.38;100687.59;4259023;33;34307;-76
2023/01/29 02:22:04;;;;;;;;;;;;;;;5.14;59.33;100695.41;4247354;33;33586;-76
2023/01/29 02:24:54;;;;;;;32.75;15.15;;;;;;;5.78;55.90;100691.00;4259485;33;34311;-76
2023/01/29 02:28:01;;;;;;;32.90;14.27;;;;;;;5.96;54.49;100686.41;4256828;33;32102;-76
2023/01/29 02:30:39;;;;;;;32.17;14.90;;;;;;;5.70;55.28;100688.72;4247196;33;33797;-76
2023/01/29 02:33:06;;;;;;;;;;;;;;;5.71;55.67;100690.50;4260145;33;33688;-77
2023/01/29 02:35:36;;;;;;;;;;;;;;;6.54;52.86;100684.81;4260662;33;34178;-76
2023/01/29 02:38:22;;;;;;;;;;;;;;;6.45;53.00;100693.63;4248830;33;32846;-76
2023/01/29 02:41:13;;;;;;;33.13;14.05;;;;;;;5.78;54.01;100696.16;4261283;33;33854;-76
2023/01/29 02:43:40;;;;;;;;;;;;;;;5.84;54.11;100694.06;4237641;33;33568;-77
2023/01/29 02:46:15;;;;;;;;;;;;;;;5.71;54.62;100689.62;4261742;33;34625;-76
2023/01/29 02:49:21;;;;;;;27.55;12.77;;;;;;;5.17;56.08;100698.19;4249470;33;34278;-76
2023/01/29 02:52:15;;;;;;;31.60;13.23;;;;;;;4.65;57.79;100709.34;4224782;33;33499;-75
2023/01/29 02:54:45;;;;;;;;;;;;;;;4.99;57.31;100707.00;4259156;33;33705;-76
2023/01/29 02:57:15;;;;;;;;;;;;;;;4.66;58.13;100711.16;4261335;33;34425;-76
2023/01/29 02:59:53;;;;;;;;;;;;;;;5.31;56.58;100713.06;4260509;33;33678;-76
2023/01/29 03:02:24;;;;;;;;;;;;;;;5.19;56.37;100714.63;4248147;33;34159;-76
2023/01/29 03:04:54;;;;;;;;;;;;;;;5.06;57.12;100714.41;4248734;33;35422;-76
2023/01/29 03:07:43;;;;;;;;;;;;;;;4.99;56.98;100714.72;4256457;33;34352;-76
2023/01/29 03:10:22;;;;;;;;;;;;;;;5.51;55.93;100709.50;4245755;33;34315;-76
2023/01/29 03:13:19;;;;;;;;;;;;;;;5.46;56.14;100713.38;4251871;33;34025;-76
2023/01/29 03:16:00;;;;;;;;;;;;;;;3.71;60.49;100720.31;4250237;33;34362;-76
2023/01/29 03:18:39;;;;;;;29.65;13.10;;;;;;;3.24;63.66;100717.03;4257129;33;33850;-76
2023/01/29 03:21:49;;;;;;;31.27;13.70;;;;;;;2.46;65.99;100721.16;4245478;33;34344;-76
2023/01/29 03:32:20;;;;;;;;;;;;;;;4.53;60.18;100725.53;4250337;33;33634;-76
2023/01/29 03:34:50;;;;;;;;;;;;;;;3.63;62.72;100734.12;4260099;33;34129;-76
2023/01/29 03:37:23;;;;;;;25.10;10.35;;;;;;;3.87;61.14;100734.44;4262694;33;34341;-76
2023/01/29 03:39:51;;;;;;;;;;;;;;;3.66;64.00;100743.72;4236506;33;33349;-76
2023/01/29 03:42:21;;;;;;;;;;;;;;;2.82;65.33;100738.06;4259036;33;33494;-76
2023/01/29 03:44:53;;;;;;;;;;;;;;;2.06;68.51;100742.13;4260529;33;33253;-76
2023/01/29 03:47:36;;;;;;;;;;;;;;;3.87;62.11;100745.59;4253789;33;34097;-76
2023/01/29 03:50:03;;;;;;;;;;;;;;;3.01;64.02;100739.69;4261143;33;34523;-76
2023/01/29 03:52:44;;;;;;;26.62;11.82;;;;;;;5.02;59.72;100740.62;4254780;33;33446;-76
2023/01/29 03:55:31;;;;;;;;;;;;;;;6.66;53.91;100742.34;4246575;33;34522;-76
2023/01/29 03:58:09;;;;;;;24.10;10.38;;;;;;;5.24;56.04;100745.84;4253582;33;34278;-76
2023/01/29 04:00:40;;;;;;;;;;;;;;;5.93;55.37;100735.91;4260353;33;34250;-76
2023/01/29 04:03:14;;;;;;;21.98;9.98;;;;;;;5.95;55.45;100730.88;4248914;33;33989;-76
2023/01/29 04:05:43;;;;;;;;;;;;;;;6.50;53.27;100738.63;4258555;33;33592;-76
2023/01/29 04:08:13;;;;;;;;;;;;;;;3.76;60.34;100742.88;4248333;33;33851;-76
2023/01/29 04:10:41;;;;;;;;;;;;;;;5.80;55.91;100733.16;4248693;33;34298;-76
2023/01/29 04:13:09;;;;;;;;;;;;;;;5.83;55.03;100730.81;4250696;33;33432;-76
2023/01/29 04:15:48;;;;;;;;;;;;;;;4.97;57.98;100739.38;4248449;33;34709;-77
2023/01/29 04:18:16;;;;;;;;;;;;;;;5.80;54.96;100730.59;4260397;33;33861;-76
2023/01/29 04:20:45;;;;;;;;;;;;;;;5.90;54.88;100730.53;4260445;33;34881;-76
2023/01/29 04:23:23;;;;;;;;;;;;;;;5.99;54.22;100741.56;4247996;33;33197;-76
2023/01/29 04:26:14;;;;;;;;;;;;;;;6.01;54.99;100732.28;4260439;33;33977;-76
2023/01/29 04:28:50;;;;;;;;;;;;;;;6.50;52.83;100725.75;4243567;33;34827;-76
2023/01/29 04:31:20;;;;;;;;;;;;;;;4.63;57.88;100737.44;4235065;33;34062;-77
2023/01/29 04:33:47;;;;;;;;;;;;;;;5.75;55.11;100732.78;4246438;33;33371;-76
2023/01/29 04:36:24;;;;;;;;;;;;;;;6.18;53.80;100724.97;4260242;33;34780;-76
2023/01/29 04:39:04;;;;;;;;;;;;;;;6.52;52.84;100722.41;4260089;33;34686;-76
2023/01/29 04:41:31;;;;;;;;;;;;;;;5.44;55.50;100734.59;4253067;33;35127;-76
2023/01/29 04:44:08;;;;;;;;;;;;;;;5.48;55.00;100741.78;4260814;33;32849;-76
2023/01/29 04:46:55;;;;;;;23.20;9.13;;;;;;;5.34;56.00;100744.91;4260542;33;34680;-76
2023/01/29 04:49:38;;;;;;;25.92;11.52;;;;;;;5.60;55.04;100735.06;4258235;33;33246;-76
2023/01/29 04:52:28;;;;;;;24.20;11.07;;;;;;;5.76;54.99;100736.28;4262548;33;33677;-76
2023/01/29 04:55:07;;;;;;;;;;;;;;;5.80;54.22;100740.88;4260780;33;33760;-76
2023/01/29 04:57:44;;;;;;;;;;;;;;;6.46;52.81;100736.59;4258816;33;34193;-77
2023/01/29 05:00:13;;;;;;;;;;;;;;;6.45;52.58;100742.53;4255032;33;33434;-76
2023/01/29 05:02:41;;;;;;;;;;;;;;;5.60;54.87;100740.19;4246718;33;34190;-76
2023/01/29 05:05:08;;;;;;;;;;;;;;;4.72;57.22;100737.34;4258822;33;34149;-76
2023/01/29 05:07:36;;;;;;;;;;;;;;;3.78;59.89;100749.03;4247277;33;33037;-76
2023/01/29 05:10:04;;;;;;;;;;;;;;;3.48;62.03;100740.47;4265616;33;33983;-75
2023/01/29 05:12:31;;;;;;;;;;;;;;;3.72;62.36;100737.47;4260137;33;34897;-75
2023/01/29 05:15:00;;;;;;;;;;;;;;;3.70;63.06;100746.69;4256234;33;32958;-76
2023/01/29 05:17:27;;;;;;;22.20;9.82;;;;;;;4.48;60.33;100731.97;4257903;33;33842;-76
2023/01/29 05:19:56;;;;;;;26.33;10.07;;;;;;;4.88;58.43;100739.50;4257861;33;34049;-75
2023/01/29 05:22:24;;;;;;;22.40;10.55;;;;;;;4.29;60.61;100744.00;4245903;33;34231;-75
2023/01/29 05:24:51;;;;;;;24.45;12.50;;;;;;;3.70;62.76;100744.12;4243147;33;33784;-75
2023/01/29 05:30:10;;;;;;;25.52;11.57;;;;;;;3.40;65.49;100732.09;4246318;33;33529;-76
2023/01/29 05:32:38;;;;;;;24.08;11.32;;;;;;;3.60;63.53;100736.41;4258652;33;34084;-76
2023/01/29 05:35:06;;;;;;;22.90;11.00;;;;;;;4.54;60.82;100726.44;4256726;33;33344;-76
2023/01/29 05:37:34;;;;;;;23.95;11.20;;;;;;;3.88;62.31;100743.91;4258596;33;33752;-76
2023/01/29 05:40:01;;;;;;;23.35;10.73;;;;;;;3.80;63.68;100745.81;4258572;33;33622;-76
2023/01/29 05:42:28;;;;;;;21.15;10.93;;;;;;;4.35;61.47;100734.25;4259264;33;33901;-76
2023/01/29 05:44:56;;;;;;;21.87;11.23;;;;;;;4.42;61.41;100736.56;4258792;33;34381;-76
2023/01/29 05:47:24;;;;;;;19.67;10.48;;;;;;;4.39;61.61;100731.19;4258658;33;33780;-76
2023/01/29 05:49:51;;;;;;;20.17;9.65;;;;;;;4.50;61.16;100735.56;4258784;33;34583;-77
2023/01/29 05:52:19;;;;;;;20.00;10.05;;;;;;;3.85;62.98;100743.66;4260033;33;33711;-76
2023/01/29 05:54:46;;;;;;;;;;;;;;;4.11;62.52;100738.19;4260084;33;34285;-76
2023/01/29 05:57:14;;;;;;;20.00;8.55;;;;;;;4.43;61.47;100743.50;4247644;33;34900;-76
2023/01/29 05:59:41;;;;;;;22.15;9.80;;;;;;;4.16;62.08;100747.19;4251512;33;33945;-76
2023/01/29 06:02:09;;;;;;;;;;;;;;;3.63;63.93;100752.06;4259775;33;34152;-76
2023/01/29 06:04:36;;;;;;;18.85;8.40;;;;;;;3.46;65.14;100754.81;4259659;33;33448;-76
2023/01/29 06:07:04;;;;;;;17.23;8.60;;;;;;;3.79;63.68;100758.53;4259688;33;33900;-76
2023/01/29 06:09:31;;;;;;;;;;;;;;;3.72;63.95;100757.97;4257450;33;34156;-76
2023/01/29 06:11:58;;;;;;;;;;;;;;;3.65;63.89;100759.84;4259224;33;33893;-76
2023/01/29 06:14:26;;;;;;;;;;;;;;;3.63;64.32;100763.94;4260142;33;33257;-76
2023/01/29 06:16:53;;;;;;;;;;;;;;;3.84;63.66;100772.59;4260027;33;34000;-76
2023/01/29 06:19:20;;;;;;;;;;;;;;;4.84;60.74;100769.13;4259994;33;34258;-76
2023/01/29 06:21:48;;;;;;;;;;;;;;;4.88;60.12;100763.47;4259969;33;34364;-76
2023/01/29 06:24:15;;;;;;;;;;;;;;;4.46;61.12;100774.56;4259967;33;33521;-76
2023/01/29 06:26:42;;;;;;;;;;;;;;;4.65;60.78;100771.84;4259816;33;35009;-76
2023/01/29 06:29:10;;;;;;;17.27;8.02;;;;;;;4.96;60.01;100783.78;4236146;33;34827;-76
2023/01/29 06:31:37;;;;;;;;;;;;;;;3.46;64.11;100783.88;4256536;33;34154;-76
2023/01/29 06:34:06;;;;;;;;;;;;;;;4.04;63.13;100790.63;4258485;33;33311;-76
2023/01/29 06:36:34;;;;;;;;;;;;;;;3.46;65.21;100794.13;4255734;33;33481;-76
2023/01/29 06:39:01;;;;;;;;;;;;;;;4.19;62.45;100802.97;4241816;33;34699;-76
2023/01/29 06:41:29;;;;;;;;;;;;;;;4.04;62.86;100811.13;4258035;33;33931;-76
2023/01/29 06:43:56;;;;;;;18.42;8.48;;;;;;;3.59;63.76;100806.31;4259500;33;33527;-76
2023/01/29 06:46:23;;;;;;;;;;;;;;;3.18;65.22;100806.09;4259344;33;34725;-76
2023/01/29 06:48:51;;;;;;;;;;;;;;;3.79;63.62;100807.22;4255072;33;33879;-76
2023/01/29 06:51:20;;;;;;;13.82;7.03;;;;;;;3.32;64.54;100818.50;4254771;33;34227;-76
2023/01/29 06:53:47;;;;;;;;;;;;;;;3.20;65.15;100809.69;4246829;33;34389;-76
2023/01/29 06:56:14;;;;;;;;;;;;;;;3.44;64.57;100815.22;4260323;33;34908;-76
2023/01/29 06:58:42;;;;;;;;;;;;;;;3.25;64.50;100808.47;4246586;33;32465;-76
2023/01/29 07:01:10;;;;;;;;;;;;;;;3.69;63.50;100803.84;4259713;33;35238;-76
2023/01/29 07:03:51;;;;;;;;;;;;;;;3.24;64.94;100804.09;4254295;33;33733;-75
2023/01/29 07:06:18;;;;;;;;;;;;;;;2.95;65.52;100804.94;4259064;33;34331;-76
2023/01/29 07:08:46;;;;;;;;;;;;;;;3.74;63.83;100807.69;4246056;33;33999;-77
2023/01/29 07:11:13;;;;;;;;;;;;;;;3.63;62.92;100797.25;4253759;33;98759;-76
2023/01/29 07:13:40;;;;;;;;;;;;;;;3.71;62.95;100799.75;4258903;33;33743;-76
2023/01/29 07:16:08;;;;;;;18.75;7.97;;;;;;;3.44;63.67;100794.72;4246654;33;34179;-77
2023/01/29 07:18:36;;;;;;;;;;;;;;;2.86;65.97;100800.63;4258739;33;34622;-76
2023/01/29 07:21:04;;;;;;;;;;;;;;;3.03;65.44;100800.47;4245725;33;35016;-76
2023/01/29 07:23:32;;;;;;;;;;;;;;;4.13;62.35;100811.94;4260458;33;32963;-77
2023/01/29 07:26:01;;;;;;;;;;;;;;;3.49;64.17;100798.59;4248494;33;34184;-77
2023/01/29 07:28:28;;;;;;;18.65;8.35;;;;;;;3.92;63.06;100798.16;4260252;33;34482;-77
2023/01/29 07:30:57;;;;;;;15.82;6.72;;;;;;;4.19;61.37;100792.69;4260293;33;34144;-77
2023/01/29 07:33:25;;;;;;;14.98;6.87;;;;;;;3.38;63.14;100789.06;4258124;33;34160;-76
2023/01/29 07:35:52;;;;;;;;;;;;;;;3.34;63.74;100793.94;4258883;33;33939;-77
2023/01/29 07:38:19;;;;;;;;;;;;;;;3.38;63.43;100783.94;4236351;33;35110;-77
2023/01/29 07:40:47;;;;;;;;;;;;;;;2.24;67.57;100783.84;4261178;33;35104;-76
2023/01/29 07:43:15;;;;;;;;;;;;;;;3.00;63.78;100774.62;4260536;33;34291;-77
2023/01/29 07:45:43;;;;;;;;;;;;;;;2.60;66.00;100776.13;4260930;33;33866;-76
2023/01/29 07:48:11;;;;;;;;;;;;;;;2.94;64.88;100769.84;4248545;33;34083;-77
2023/01/29 07:50:39;;;;;;;;;;;;;;;2.23;66.56;100770.16;4236668;33;33883;-77
2023/01/29 07:53:06;;;;;;;;;;;;;;;3.42;63.56;100773.19;4258182;33;33212;-78
2023/01/29 07:55:33;;;;;;;14.05;6.57;;;;;;;3.45;63.24;100773.47;4248011;33;34763;-78
2023/01/29 07:58:01;;;;;;;;;;;;;;;3.23;63.44;100779.25;4260551;33;33483;-78
2023/01/29 08:00:30;;;;;;;;;;;;;;;3.14;63.61;100783.56;4249853;33;34010;-77
2023/01/29 08:03:01;;;;;;;;;;;;;;;3.04;64.29;100786.94;4248313;33;34158;-77
2023/01/29 08:05:28;;;;;;;;;;;;;;;3.81;61.52;100780.06;4260500;33;33946;-78
2023/01/29 08:07:57;;;;;;;;;;;;;;;3.04;63.89;100770.69;4261354;33;34628;-80
2023/01/29 08:10:33;;;;;;;;;;;;;;;3.81;61.59;100782.63;4248558;33;34857;-79
2023/01/29 08:13:02;;;;;;;;;;;;;;;3.61;61.41;100779.22;4248287;33;33497;-78
2023/01/29 08:15:30;;;;;;;;;;;;;;;3.93;60.43;100778.53;4247433;33;34764;-78
2023/01/29 08:17:57;;;;;;;;;;;;;;;3.54;61.40;100781.97;4257815;33;34886;-78
2023/01/29 08:20:25;;;;;;;;;;;;;;;3.04;62.78;100786.06;4245472;33;34363;-77
2023/01/29 08:22:59;;;;;;;;;;;;;;;3.04;62.86;100778.38;4246784;33;33579;-78
2023/01/29 08:25:27;;;;;;;;;;;;;;;3.07;62.52;100778.63;4246763;33;34267;-79
2023/01/29 08:27:56;;;;;;;13.13;5.97;;;;;;;2.88;62.96;100777.00;4245672;33;33638;-78
2023/01/29 08:30:24;;;;;;;;;;;;;;;2.42;64.57;100790.66;4232385;33;34143;-79
2023/01/29 08:32:52;;;;;;;11.27;5.30;;;;;;;2.43;64.49;100795.00;4256271;33;33592;-78
2023/01/29 08:35:19;;;;;;;15.50;5.10;;;;;;;1.99;65.12;100796.87;4252689;33;33734;-78
2023/01/29 08:37:58;;;;;;;12.37;6.03;;;;;;;1.82;66.32;100807.16;4246821;33;33961;-77
2023/01/29 08:40:27;;;;;;;;;;;;;;;1.28;68.16;100808.00;4256354;33;34762;-77
2023/01/29 08:43:01;;;;;;;11.52;6.35;;;;;;;2.70;64.72;100808.56;4245726;33;33802;-77
2023/01/29 08:45:32;;;;;;;8.65;3.92;;;;;;;2.22;63.93;100805.81;4245023;33;33923;-77
2023/01/29 08:48:00;;;;;;;13.93;5.78;;;;;;;2.49;63.64;100817.69;4237534;33;33493;-78
2023/01/29 08:50:29;;;;;;;14.65;6.82;;;;;;;2.44;64.73;100812.16;4244718;33;33524;-78
2023/01/29 08:52:58;;;;;;;14.38;7.12;;;;;;;2.45;65.10;100821.62;4245250;33;34088;-79
2023/01/29 08:55:26;;;;;;;11.57;5.57;;;;;;;3.19;61.94;100818.16;4229479;33;33628;-78
2023/01/29 08:57:53;;;;;;;;;;;;;;;2.84;61.93;100818.41;4241743;33;34850;-78
2023/01/29 09:00:21;;;;;;;;;;;;;;;2.98;62.38;100823.91;4256804;33;33738;-80
2023/01/29 09:02:48;;;;;;;;;;;;;;;3.40;60.30;100838.75;4244110;33;33817;-78
2023/01/29 09:05:16;;;;;;;;;;;;;;;3.26;60.46;100830.72;4232852;33;34114;-78
2023/01/29 09:07:44;;;;;;;;;;;;;;;3.05;61.19;100839.03;4242894;33;34028;-78
2023/01/29 09:10:12;;;;;;;;;;;;;;;3.46;59.93;100839.31;4244509;33;32512;-78
2023/01/29 09:12:39;;;;;;;;;;;;;;;3.04;61.03;100844.94;4244881;33;33725;-79
2023/01/29 09:15:07;;;;;;;;;;;;;;;2.58;62.72;100843.25;4245725;33;34433;-78
2023/01/29 09:17:34;;;;;;;;;;;;;;;3.44;60.24;100840.81;4246094;33;34570;-78
2023/01/29 09:20:01;;;;;;;;;;;;;;;2.52;62.21;100849.59;4244949;33;33926;-79
2023/01/29 09:22:29;;;;;;;;;;;;;;;2.90;62.08;100844.56;4246239;33;33766;-78
2023/01/29 09:24:56;;;;;;;;;;;;;;;3.30;59.98;100839.59;4246127;33;34287;-77
2023/01/29 09:27:23;;;;;;;;;;;;;;;3.10;59.87;100842.91;4244021;33;35051;-78
2023/01/29 09:29:51;;;;;;;;;;;;;;;2.22;62.84;100846.69;4254990;33;34915;-78
2023/01/29 09:32:18;;;;;;;;;;;;;;;2.43;61.78;100843.59;4256050;33;33549;-78
2023/01/29 09:35:06;;;;;;;;;;;;;;;2.50;62.89;100847.66;4243523;33;34040;-79
2023/01/29 09:37:34;;;;;;;;;;;;;;;3.37;60.01;100841.06;4245345;33;32500;-79
2023/01/29 09:40:01;;;;;;;;;;;;;;;2.88;60.72;100846.09;4244283;33;34510;-78
2023/01/29 09:42:47;;;;;;;;;;;;;;;2.50;61.76;100845.97;4244675;33;33309;-79
2023/01/29 09:45:16;;;;;;;;;;;;;;;2.76;61.40;100850.06;4245083;33;33985;-80
2023/01/29 09:47:44;;;;;;;;;;;;;;;2.23;62.34;100859.63;4244605;33;33442;-80
2023/01/29 09:50:18;;;;;;;;;;;;;;;2.28;62.44;100850.75;4239861;33;33357;-78
2023/01/29 09:53:08;;;;;;;;;;;;;;;2.52;62.46;100857.25;4251829;33;34117;-78
2023/01/29 09:55:47;;;;;;;;;;;;;;;2.94;60.80;100851.75;4237077;33;34263;-79
2023/01/29 09:58:17;;;;;;;;;;;;;;;3.05;60.29;100849.25;4255636;33;34203;-79
2023/01/29 10:00:50;;;;;;;;;;;;;;;2.74;60.97;100861.81;4240670;33;34910;-79
2023/01/29 10:03:36;;;;;;;;;;;;;;;2.29;61.70;100869.53;4248674;33;32883;-78
2023/01/29 10:06:06;;;;;;;;;;;;;;;2.27;62.21;100878.72;4243481;33;35703;-79
2023/01/29 10:08:40;;;;;;;;;;;;;;;2.87;61.25;100869.84;4241664;33;34337;-78
2023/01/29 10:11:11;;;;;;;;;;;;;;;3.64;58.62;100871.69;4233315;33;35207;-77
2023/01/29 10:13:55;;;;;;;;;;;;;;;2.88;59.81;100861.44;4254766;33;33251;-79
2023/01/29 10:16:29;;;;;;;;;;;;;;;3.30;58.62;100855.88;4248989;33;34169;-80
2023/01/29 10:19:03;;;;;;;;;;;;;;;3.04;59.04;100873.09;4252933;33;33906;-79
2023/01/29 10:21:45;;;;;;;;;;;;;;;3.10;58.39;100864.28;4255685;33;34683;-81
2023/01/29 10:24:16;;;;;;;;;;;;;;;3.03;60.24;100869.59;4258252;33;33385;-80
2023/01/29 10:26:43;;;;;;;;;;;;;;;3.80;57.62;100867.94;4256518;33;36595;-79
2023/01/29 10:29:13;;;;;;;;;;;;;;;3.77;57.21;100862.53;4257890;33;34257;-79
2023/01/29 10:31:40;;;;;;;;;;;;;;;2.95;59.01;100861.25;4245666;33;33973;-80
2023/01/29 10:34:17;;;;;;;;;;;;;;;2.79;59.27;100860.56;4258134;33;33679;-80
2023/01/29 10:36:46;;;;;;;;;;;;;;;3.80;56.75;100867.94;4258352;33;34084;-79
2023/01/29 10:39:17;;;;;;;;;;;;;;;2.63;58.79;100878.72;4258727;33;33708;-80
2023/01/29 10:41:44;;;;;;;;;;;;;;;3.21;57.99;100867.84;4259719;33;34263;-79
2023/01/29 10:44:24;;;;;;;;;;;;;;;3.20;57.43;100860.91;4259887;33;33314;-80
2023/01/29 10:47:10;;;;;;;;;;;;;;;2.91;57.65;100865.94;4259656;33;33727;-80
2023/01/29 10:49:51;;;;;;;;;;;;;;;1.37;63.40;100861.56;4259775;33;33908;-80
2023/01/29 10:52:37;;;;;;;;;;;;;;;3.22;57.21;100849.12;4258485;33;34103;-81
2023/01/29 10:55:05;;;;;;;;;;;;;;;3.93;55.19;100847.75;4258800;33;33406;-79
2023/01/29 10:57:32;;;;;;;;;;;;;;;3.16;56.10;100843.47;4261678;33;34325;-80
2023/01/29 10:59:59;;;;;;;;;;;;;;;2.64;57.93;100842.16;4261897;33;34101;-81
2023/01/29 11:02:26;;;;;;;;;;;;;;;2.53;57.97;100841.16;4261613;33;35030;-80
2023/01/29 11:04:54;;;;;;;;;;;;;;;2.74;57.74;100838.78;4259326;33;33081;-80
2023/01/29 11:07:21;;;;;;;;;;;;;;;2.95;57.02;100827.97;4260996;33;34191;-81
2023/01/29 11:09:51;;;;;;;;;;;;;;;3.76;54.46;100819.75;4259625;33;33387;-81
2023/01/29 11:12:25;;;;;;;;;;;;;;;3.10;56.07;100817.31;4259705;33;34759;-79
2023/01/29 11:14:54;;;;;;;;;;;;;;;3.05;56.68;100822.03;4262941;33;33547;-78
2023/01/29 11:17:22;;;;;;;;;;;;;;;3.79;54.12;100826.03;4258342;33;34178;-78
2023/01/29 11:19:50;;;;;;;;;;;;;;;3.17;54.93;100818.75;4260229;33;35591;-79
2023/01/29 11:22:19;;;;;;;;;;;;;;;2.76;57.45;100819.34;4259966;33;34114;-79
2023/01/29 11:24:46;;;;;;;;;;;;;;;3.43;54.33;100808.31;4259519;33;33358;-78
2023/01/29 11:27:25;;;;;;;;;;;;;;;3.51;54.11;100797.06;4246691;33;34271;-79
2023/01/29 11:29:52;;;;;;;;;;;;;;;3.29;55.11;100795.16;4259470;33;33774;-80
2023/01/29 11:32:20;;;;;;;;;;;;;;;3.70;53.96;100794.47;4258987;33;33727;-79
2023/01/29 11:35:02;;;;;;;;;;;;;;;3.76;53.85;100789.87;4260417;33;34342;-80
2023/01/29 11:37:34;;;;;;;;;;;;;;;3.52;54.37;100791.19;4259524;33;33214;-79
2023/01/29 11:40:08;;;;;;;;;;;;;;;3.39;53.51;100780.63;4259508;33;34165;-80
2023/01/29 11:42:36;;;;;;;;;;;;;;;3.50;53.69;100785.94;4256295;33;34406;-79
2023/01/29 11:45:24;;;;;;;12.23;5.30;;;;;;;4.09;51.58;100773.94;4262928;33;33211;-78
2023/01/29 11:47:53;;;;;;;;;;;;;;;3.67;52.52;100779.75;4243339;33;33907;-81
2023/01/29 11:50:24;;;;;;;;;;;;;;;4.22;51.36;100767.34;4242947;33;33773;-79
2023/01/29 11:52:51;;;;;;;;;;;;;;;4.26;51.01;100764.25;4259283;33;34488;-79
2023/01/29 11:55:20;;;;;;;;;;;;;;;2.84;55.43;100754.44;4246810;33;34423;-80
2023/01/29 11:58:07;;;;;;;;;;;;;;;1.73;57.53;100766.31;4261104;33;34961;-80
2023/01/29 12:00:35;;;;;;;;;;;;;;;1.92;58.09;100762.19;4253316;33;33914;-79
2023/01/29 12:03:03;;;;;;;;;;;;;;;2.17;56.80;100752.59;4250054;33;33474;-78
2023/01/29 12:05:30;;;;;;;;;;;;;;;1.38;58.38;100757.06;4261009;33;33404;-78
2023/01/29 12:08:01;;;;;;;;;;;;;;;3.15;53.57;100745.28;4260158;33;34737;-81
2023/01/29 12:10:29;;;;;;;;;;;;;;;2.95;52.31;100750.28;4258941;33;35018;-80
2023/01/29 12:13:09;;;;;;;;;;;;;;;3.31;52.32;100747.53;4257019;33;33855;-80
2023/01/29 12:15:37;;;;;;;;;;;;;;;3.71;52.04;100745.94;4261005;33;32595;-79
2023/01/29 12:18:12;;;;;;;11.33;5.07;;;;;;;2.77;54.33;100746.06;4259076;33;32708;-80
2023/01/29 12:20:44;;;;;;;11.35;6.12;;;;;;;4.20;51.30;100743.22;4231982;33;31880;-81
2023/01/29 12:23:38;;;;;;;10.93;4.78;;;;;;;3.98;51.02;100733.72;4244933;33;34207;-80
2023/01/29 12:26:26;;;;;;;13.52;6.10;;;;;;;3.90;51.01;100734.69;4234732;33;33645;-79
2023/01/29 12:29:32;;;;;;;10.00;4.37;;;;;;;3.53;51.85;100736.62;4241714;33;33095;-80
2023/01/29 12:32:30;;;;;;;9.95;5.15;;;;;;;3.73;53.06;100731.59;4243036;33;35496;-81
2023/01/29 12:35:09;;;;;;;9.77;4.70;;;;;;;3.13;55.70;100726.34;4242672;33;33696;-81
2023/01/29 12:37:59;;;;;;;11.60;4.80;;;;;;;4.20;49.84;100722.72;4242999;33;33113;-81
2023/01/29 12:40:52;;;;;;;9.90;4.22;;;;;;;3.31;51.39;100723.59;4242450;33;32297;-80
2023/01/29 12:43:40;;;;;;;8.27;4.20;;;;;;;3.04;52.53;100729.75;4226518;33;34593;-80
2023/01/29 12:46:09;;;;;;;;;;;;;;;3.50;50.90;100733.81;4244694;33;32922;-80
2023/01/29 12:48:37;;;;;;;;;;;;;;;4.00;50.57;100733.81;4261925;33;34006;-81
2023/01/29 12:51:09;;;;;;;;;;;;;;;3.95;49.67;100723.19;4245200;33;34371;-81
2023/01/29 12:53:38;;;;;;;;;;;;;;;4.30;49.16;100720.12;4243393;33;32358;-81
2023/01/29 12:56:10;;;;;;;8.80;4.15;;;;;;;3.60;49.81;100721.03;4243966;33;36277;-80
2023/01/29 12:58:59;;;;;;;8.88;4.18;;;;;;;3.29;50.93;100707.22;4244443;33;33379;-82
2023/01/29 13:01:33;;;;;;;;;;;;;;;2.97;51.45;100709.47;4244644;33;34557;-81